Time;durP1;ratioP1;P1;durP2;ratioP2;P2;SDS_P1;SDS_P2;PMS_P1;PMS_P2;Temp;Humidity;BMP_temperature;BMP_pressure;BME280_temperature;BME280_humidity;BME280_pressure;Samples;Min_cycle;Max_cycle;Signal;HPM_P1;HPM_P2
2023/03/10 00:01:29;;;;;;;20.10;9.13;;;0.50;99.90;;;;;;5104015;28;20146;-77
2023/03/10 00:03:58;;;;;;;18.88;7.47;;;0.50;99.90;;;;;;5086969;28;20044;-77
2023/03/10 00:06:27;;;;;;;18.25;8.85;;;0.50;99.90;;;;;;5070570;28;20118;-77
2023/03/10 00:08:54;;;;;;;20.48;9.45;;;0.50;99.90;;;;;;5103650;28;20045;-77
2023/03/10 00:11:21;;;;;;;19.52;9.15;;;0.60;99.90;;;;;;5103791;28;20037;-77
2023/03/10 00:13:48;;;;;;;19.80;8.65;;;0.60;99.90;;;;;;5103645;28;20044;-77
2023/03/10 00:16:21;;;;;;;17.77;8.77;;;1.50;99.90;;;;;;5086677;28;20048;-77
2023/03/10 00:18:49;;;;;;;19.33;9.13;;;0.60;99.90;;;;;;5087124;28;20052;-77
2023/03/10 00:21:21;;;;;;;16.40;8.38;;;0.50;99.90;;;;;;5087226;28;20045;-77
2023/03/10 00:23:48;;;;;;;20.40;9.73;;;0.50;99.90;;;;;;5070650;28;20052;-77
2023/03/10 00:26:16;;;;;;;18.55;9.32;;;0.60;99.90;;;;;;5103383;28;20037;-77
2023/03/10 00:28:43;;;;;;;19.45;9.38;;;0.60;99.90;;;;;;5070021;28;20037;-77
2023/03/10 00:31:12;;;;;;;20.42;9.43;;;0.60;99.90;;;;;;5103143;28;20087;-77
2023/03/10 00:33:40;;;;;;;22.13;9.77;;;0.60;99.90;;;;;;5120314;28;20072;-77
2023/03/10 00:36:08;;;;;;;23.40;11.02;;;0.60;99.90;;;;;;5119833;28;20040;-77
2023/03/10 00:38:35;;;;;;;22.15;10.73;;;0.60;99.90;;;;;;5120303;28;20131;-77
2023/03/10 00:41:05;;;;;;;22.92;10.80;;;0.60;99.90;;;;;;5102910;28;20099;-77
2023/03/10 00:43:33;;;;;;;21.52;10.48;;;0.60;99.90;;;;;;5103202;28;20132;-77
2023/03/10 00:46:00;;;;;;;24.63;11.52;;;0.60;99.90;;;;;;5102373;28;20049;-77
2023/03/10 00:48:27;;;;;;;21.35;11.20;;;1.50;99.90;;;;;;5086472;28;20037;-77
2023/03/10 00:50:54;;;;;;;21.65;10.77;;;0.80;99.90;;;;;;5086461;28;20541;-77
2023/03/10 00:53:20;;;;;;;19.80;9.88;;;0.60;99.90;;;;;;5103315;28;20036;-77
2023/03/10 00:56:18;;;;;;;21.90;10.40;;;0.60;99.90;;;;;;5103320;28;20398;-77
2023/03/10 00:58:48;;;;;;;21.20;10.23;;;0.70;99.90;;;;;;5082304;28;20053;-77
2023/03/10 01:01:21;;;;;;;23.73;10.40;;;0.60;99.90;;;;;;5102354;28;20048;-77
2023/03/10 01:03:53;;;;;;;19.77;9.55;;;0.80;99.90;;;;;;5102823;28;20570;-77
2023/03/10 01:06:21;;;;;;;18.58;9.10;;;0.60;99.90;;;;;;5102710;28;20075;-77
2023/03/10 01:08:48;;;;;;;18.90;9.10;;;0.70;99.90;;;;;;5069182;28;20045;-77
2023/03/10 01:11:17;;;;;;;18.42;9.90;;;0.90;99.90;;;;;;5069168;28;20128;-77
2023/03/10 01:13:44;;;;;;;17.52;9.00;;;0.60;99.90;;;;;;5069885;28;20039;-77
2023/03/10 01:16:11;;;;;;;18.02;9.23;;;1.10;99.90;;;;;;5085837;28;20409;-77
2023/03/10 01:18:39;;;;;;;20.05;9.98;;;0.60;99.90;;;;;;5086101;28;20045;-77
2023/03/10 01:21:06;;;;;;;19.33;10.02;;;0.60;99.90;;;;;;5119163;28;20037;-77
2023/03/10 01:23:33;;;;;;;20.02;10.05;;;0.60;99.90;;;;;;5119480;28;20421;-76
2023/03/10 01:25:59;;;;;;;18.73;9.20;;;1.40;99.90;;;;;;5102219;28;20037;-77
2023/03/10 01:28:26;;;;;;;20.35;9.77;;;0.60;99.90;;;;;;5069316;28;20036;-77
2023/03/10 01:30:53;;;;;;;18.55;9.85;;;0.80;99.90;;;;;;5102332;28;20045;-77
2023/03/10 01:33:19;;;;;;;17.48;9.27;;;0.60;99.90;;;;;;5085149;28;20044;-77
2023/03/10 01:35:46;;;;;;;19.30;9.57;;;1.30;99.90;;;;;;5068722;28;20409;-77
2023/03/10 01:38:13;;;;;;;20.08;9.50;;;0.60;99.90;;;;;;5084927;28;20501;-77
2023/03/10 01:40:47;;;;;;;19.55;9.55;;;0.60;99.90;;;;;;5102463;28;20106;-77
2023/03/10 01:43:20;;;;;;;19.40;9.40;;;0.60;99.90;;;;;;5068410;28;20052;-77
2023/03/10 01:45:47;;;;;;;17.52;8.48;;;0.60;99.90;;;;;;5084898;28;20409;-77
2023/03/10 01:48:15;;;;;;;18.20;8.32;;;0.60;99.90;;;;;;5101986;28;20123;-77
2023/03/10 01:50:45;;;;;;;18.75;9.68;;;0.60;99.90;;;;;;5069021;28;20041;-77
2023/03/10 01:53:15;;;;;;;16.50;8.45;;;0.70;99.90;;;;;;5085173;28;20053;-77
2023/03/10 01:55:49;;;;;;;15.38;7.93;;;0.70;99.90;;;;;;5068560;28;20049;-77
2023/03/10 01:58:18;;;;;;;15.35;7.40;;;0.60;99.90;;;;;;5084897;28;20051;-77
2023/03/10 02:00:45;;;;;;;17.90;8.23;;;1.50;99.90;;;;;;5069084;28;20051;-77
2023/03/10 02:03:23;;;;;;;15.30;7.40;;;0.70;99.90;;;;;;5084821;28;20049;-77
2023/03/10 02:05:57;;;;;;;13.15;6.82;;;0.70;99.90;;;;;;5068693;28;20124;-77
2023/03/10 02:08:28;;;;;;;15.55;6.95;;;0.70;99.90;;;;;;5085331;28;20037;-77
2023/03/10 02:10:56;;;;;;;13.63;6.85;;;0.70;99.90;;;;;;5068252;28;20037;-77
2023/03/10 02:13:23;;;;;;;14.82;7.00;;;0.80;99.90;;;;;;5068449;28;20063;-77
2023/03/10 02:15:49;;;;;;;15.05;7.32;;;0.60;99.90;;;;;;5084811;28;20095;-77
2023/03/10 02:18:18;;;;;;;12.88;6.60;;;1.20;99.90;;;;;;5101449;28;20076;-77
2023/03/10 02:21:12;;;;;;;13.07;6.25;;;0.60;99.90;;;;;;5084857;28;20080;-77
2023/03/10 02:23:45;;;;;;;15.07;7.20;;;0.60;99.90;;;;;;5068559;28;20854;-77
2023/03/10 02:26:25;;;;;;;16.60;7.03;;;0.60;99.90;;;;;;5068081;28;20095;-77
2023/03/10 02:28:53;;;;;;;11.65;6.00;;;0.60;99.90;;;;;;5068818;28;20044;-77
2023/03/10 02:31:21;;;;;;;13.85;6.63;;;0.50;99.90;;;;;;5084391;28;20045;-77
2023/03/10 02:33:49;;;;;;;13.00;6.57;;;0.60;99.90;;;;;;5084890;28;20476;-77
2023/03/10 02:36:19;;;;;;;13.25;6.93;;;0.60;99.90;;;;;;5068369;28;20059;-77
2023/03/10 02:38:46;;;;;;;14.40;7.35;;;0.70;99.90;;;;;;5068545;28;20493;-77
2023/03/10 02:41:37;;;;;;;13.63;6.65;;;0.50;99.90;;;;;;5068081;28;20440;-77
2023/03/10 02:44:08;;;;;;;17.02;7.10;;;0.50;99.90;;;;;;5085102;28;20049;-77
2023/03/10 02:46:35;;;;;;;14.65;7.25;;;0.90;99.90;;;;;;5068104;28;20049;-77
2023/03/10 02:49:05;;;;;;;14.45;6.90;;;0.50;99.90;;;;;;5084903;28;20040;-77
2023/03/10 02:51:37;;;;;;;16.55;6.88;;;1.30;99.90;;;;;;5084747;28;20116;-77
2023/03/10 02:54:06;;;;;;;14.50;7.00;;;0.50;99.90;;;;;;5101584;28;20045;-77
2023/03/10 02:56:34;;;;;;;16.60;7.55;;;0.50;99.90;;;;;;5068279;28;20041;-77
2023/03/10 02:59:02;;;;;;;17.30;7.38;;;0.50;99.90;;;;;;5088560;28;20045;-77
2023/03/10 03:01:29;;;;;;;14.45;6.63;;;0.60;99.90;;;;;;5071234;28;20525;-77
2023/03/10 03:03:56;;;;;;;15.68;7.45;;;0.50;99.90;;;;;;5105205;28;20075;-77
2023/03/10 03:06:24;;;;;;;15.82;7.20;;;0.60;99.90;;;;;;5087892;28;20409;-77
2023/03/10 03:08:50;;;;;;;16.23;7.15;;;0.50;99.90;;;;;;5088520;28;20037;-77
2023/03/10 03:11:17;;;;;;;14.98;7.15;;;0.60;99.90;;;;;;5071410;28;20496;-77
2023/03/10 03:13:44;;;;;;;16.13;7.72;;;0.60;99.90;;;;;;5088411;28;20048;-77
2023/03/10 03:16:11;;;;;;;14.63;7.07;;;0.60;99.90;;;;;;5088617;28;20425;-77
2023/03/10 03:18:37;;;;;;;13.63;6.82;;;0.60;99.90;;;;;;5104958;28;20045;-77
2023/03/10 03:21:06;;;;;;;16.27;7.35;;;1.10;99.90;;;;;;5088575;28;20389;-77
2023/03/10 03:23:34;;;;;;;15.32;7.63;;;0.60;99.90;;;;;;5071278;28;20041;-77
2023/03/10 03:26:01;;;;;;;18.48;8.65;;;1.00;99.90;;;;;;5104908;28;20044;-77
2023/03/10 03:28:28;;;;;;;16.38;7.15;;;0.60;99.90;;;;;;5087885;28;20493;-77
2023/03/10 03:30:55;;;;;;;17.00;7.75;;;1.00;99.90;;;;;;5104869;28;20077;-77
2023/03/10 03:33:22;;;;;;;15.60;7.35;;;0.60;99.90;;;;;;5087144;28;20047;-78
2023/03/10 03:35:48;;;;;;;16.20;7.57;;;0.60;99.90;;;;;;5054818;28;20094;-77
2023/03/10 03:38:15;;;;;;;13.95;7.32;;;0.60;99.90;;;;;;5088088;28;20045;-77
2023/03/10 03:40:43;;;;;;;13.68;7.00;;;0.60;99.90;;;;;;5054489;28;20052;-77
2023/03/10 03:43:12;;;;;;;16.60;7.57;;;0.60;99.90;;;;;;5054687;28;20041;-77
2023/03/10 03:45:39;;;;;;;17.08;7.85;;;0.60;99.90;;;;;;5071101;28;20111;-77
2023/03/10 03:48:05;;;;;;;19.20;7.65;;;1.00;99.90;;;;;;5071010;28;20084;-77
2023/03/10 03:50:32;;;;;;;18.45;8.55;;;1.20;99.90;;;;;;5054193;28;20473;-77
2023/03/10 03:52:59;;;;;;;17.45;8.25;;;0.60;99.90;;;;;;5070860;28;20055;-77
2023/03/10 03:55:25;;;;;;;19.35;9.18;;;1.10;99.90;;;;;;5070515;28;20488;-77
2023/03/10 03:57:52;;;;;;;21.45;10.00;;;0.60;99.90;;;;;;5087566;28;20040;-77
2023/03/10 04:00:21;;;;;;;19.60;8.60;;;0.60;99.90;;;;;;5104410;28;20041;-77
2023/03/10 04:02:48;;;;;;;22.08;10.05;;;0.60;99.90;;;;;;5087449;28;20073;-77
2023/03/10 04:05:15;;;;;;;19.42;10.18;;;0.60;99.90;;;;;;5087670;28;20110;-77
2023/03/10 04:07:43;;;;;;;20.58;9.98;;;0.60;99.90;;;;;;5087591;28;20061;-78
2023/03/10 04:10:15;;;;;;;23.67;10.80;;;1.10;99.90;;;;;;5103837;28;20570;-77
2023/03/10 04:12:42;;;;;;;18.70;9.93;;;0.60;99.90;;;;;;5070468;28;20044;-77
2023/03/10 04:15:10;;;;;;;21.20;9.65;;;0.60;99.90;;;;;;5087240;28;20025;-77
2023/03/10 04:17:37;;;;;;;22.00;10.68;;;0.60;99.90;;;;;;5120524;28;20043;-77
2023/03/10 04:20:07;;;;;;;21.73;10.65;;;1.10;99.90;;;;;;5087266;28;20037;-77
2023/03/10 04:22:34;;;;;;;23.48;11.15;;;0.60;99.90;;;;;;5086643;28;20045;-78
2023/03/10 04:25:02;;;;;;;24.58;12.02;;;0.60;99.90;;;;;;5086697;28;20493;-77
2023/03/10 04:27:29;;;;;;;21.08;10.52;;;0.60;99.90;;;;;;5087030;28;20098;-78
2023/03/10 04:29:57;;;;;;;21.58;10.48;;;0.60;99.90;;;;;;5070477;28;20087;-77
2023/03/10 04:32:24;;;;;;;22.63;10.63;;;0.60;99.90;;;;;;5054150;28;20516;-77
2023/03/10 04:34:51;;;;;;;24.70;11.57;;;0.60;99.90;;;;;;5087408;28;20043;-77
2023/03/10 04:37:19;;;;;;;25.30;11.98;;;1.20;99.90;;;;;;5103475;28;20080;-77
2023/03/10 04:39:45;;;;;;;26.83;12.25;;;0.60;99.90;;;;;;5086570;28;20048;-77
2023/03/10 04:42:12;;;;;;;23.05;11.15;;;1.40;99.90;;;;;;5070162;28;20494;-77
2023/03/10 04:44:39;;;;;;;25.48;11.85;;;0.60;99.90;;;;;;5069846;28;20561;-78
2023/03/10 04:47:05;;;;;;;24.02;11.52;;;1.10;99.90;;;;;;5053432;28;20065;-78
2023/03/10 04:49:32;;;;;;;26.50;11.30;;;0.50;99.90;;;;;;5053085;28;20040;-77
2023/03/10 04:51:59;;;;;;;24.52;11.55;;;1.10;99.90;;;;;;5053759;28;20025;-77
2023/03/10 04:54:25;;;;;;;28.30;12.43;;;0.90;99.90;;;;;;5086420;28;20098;-77
2023/03/10 04:56:52;;;;;;;26.63;12.13;;;1.40;99.90;;;;;;5103198;28;20474;-77
2023/03/10 04:59:20;;;;;;;25.67;11.90;;;0.60;99.90;;;;;;5086542;28;20099;-77
2023/03/10 05:01:47;;;;;;;30.75;13.55;;;1.30;99.90;;;;;;5102894;28;20416;-77
2023/03/10 05:04:14;;;;;;;29.15;13.20;;;0.60;99.90;;;;;;5069399;28;20044;-77
2023/03/10 05:06:43;;;;;;;28.67;13.23;;;0.60;99.90;;;;;;5069914;28;20094;-77
2023/03/10 05:09:10;;;;;;;28.77;12.80;;;1.00;99.90;;;;;;5086127;28;20041;-77
2023/03/10 05:11:36;;;;;;;33.95;14.85;;;1.00;99.90;;;;;;5085804;28;20764;-78
2023/03/10 05:14:03;;;;;;;32.85;14.55;;;0.60;99.90;;;;;;5069074;28;20493;-78
2023/03/10 05:16:30;;;;;;;35.15;14.60;;;0.60;99.90;;;;;;5102498;28;20475;-78
2023/03/10 05:18:56;;;;;;;36.30;16.00;;;0.70;99.90;;;;;;5086382;28;20170;-78
2023/03/10 05:21:23;;;;;;;33.08;15.25;;;0.50;99.90;;;;;;5085564;28;20128;-78
2023/03/10 05:23:52;;;;;;;34.47;15.50;;;0.60;99.90;;;;;;5085522;28;20048;-78
2023/03/10 05:26:19;;;;;;;39.60;15.77;;;1.40;99.90;;;;;;5102390;28;20512;-78
2023/03/10 05:28:46;;;;;;;40.22;16.35;;;0.50;99.90;;;;;;5085594;28;20033;-78
2023/03/10 05:31:15;;;;;;;37.47;15.98;;;0.50;99.90;;;;;;5102778;28;20029;-78
2023/03/10 05:33:42;;;;;;;36.42;15.55;;;0.50;99.90;;;;;;5086139;28;20102;-78
2023/03/10 05:36:11;;;;;;;32.25;15.27;;;1.60;99.90;;;;;;5102646;28;20043;-78
2023/03/10 05:38:38;;;;;;;34.63;15.20;;;0.50;99.90;;;;;;5102216;28;20045;-78
2023/03/10 05:41:09;;;;;;;32.15;15.32;;;0.50;99.90;;;;;;5102187;28;20044;-78
2023/03/10 05:43:37;;;;;;;33.60;15.48;;;0.40;99.90;;;;;;5102345;28;20045;-78
2023/03/10 05:46:05;;;;;;;32.67;14.73;;;0.40;99.90;;;;;;5102084;28;20142;-78
2023/03/10 05:48:32;;;;;;;33.25;14.18;;;0.50;99.90;;;;;;5102502;28;20051;-78
2023/03/10 05:51:05;;;;;;;30.80;13.82;;;0.40;99.90;;;;;;5068998;28;20040;-78
2023/03/10 05:53:33;;;;;;;21.98;8.68;;;0.40;99.90;;;;;;5102276;28;20045;-78
2023/03/10 05:56:08;;;;;;;14.55;6.93;;;0.40;99.90;;;;;;5085403;28;20033;-78
2023/03/10 05:58:35;;;;;;;13.85;6.43;;;0.40;99.90;;;;;;5069197;28;20045;-78
2023/03/10 06:01:02;;;;;;;17.17;7.88;;;0.80;99.90;;;;;;5068815;28;20041;-78
2023/03/10 06:03:29;;;;;;;19.45;7.22;;;0.40;99.90;;;;;;5085407;28;20064;-78
2023/03/10 06:05:57;;;;;;;13.23;5.75;;;0.80;99.90;;;;;;5068514;28;20037;-78
2023/03/10 06:08:26;;;;;;;16.40;6.93;;;0.30;99.90;;;;;;5068436;28;20067;-78
2023/03/10 06:10:53;;;;;;;16.42;7.13;;;0.60;99.90;;;;;;5052662;28;20077;-78
2023/03/10 06:13:20;;;;;;;12.95;6.22;;;0.50;99.90;;;;;;5052074;28;20108;-78
2023/03/10 06:15:51;;;;;;;17.05;5.63;;;1.00;99.90;;;;;;5051910;28;20045;-78
2023/03/10 06:18:19;;;;;;;11.25;5.25;;;0.40;99.90;;;;;;5068784;28;20438;-78
2023/03/10 06:20:47;;;;;;;15.20;6.18;;;0.30;99.90;;;;;;5051812;28;20041;-78
2023/03/10 06:23:15;;;;;;;13.55;5.93;;;0.30;99.90;;;;;;5068717;28;20073;-78
2023/03/10 06:25:43;;;;;;;15.60;5.95;;;0.30;99.90;;;;;;5068072;28;20041;-78
2023/03/10 06:28:10;;;;;;;12.23;4.95;;;0.30;99.90;;;;;;5101471;28;20482;-78
2023/03/10 06:30:37;;;;;;;14.52;6.22;;;1.00;99.90;;;;;;5068682;28;20239;-78
2023/03/10 06:33:04;;;;;;;11.63;5.28;;;0.30;99.90;;;;;;5087344;28;20033;-78
2023/03/10 06:35:31;;;;;;;13.68;6.53;;;0.60;99.90;;;;;;5055926;28;20060;-78
2023/03/10 06:37:58;;;;;;;12.05;5.07;;;0.30;99.90;;;;;;5071333;28;20138;-78
2023/03/10 06:40:24;;;;;;;11.60;5.93;;;0.90;99.90;;;;;;5088647;28;20041;-78
2023/03/10 06:42:51;;;;;;;13.00;5.30;;;0.30;99.90;;;;;;5071754;28;20423;-77
2023/03/10 06:45:18;;;;;;;13.95;6.00;;;1.10;99.90;;;;;;5088785;28;20109;-77
2023/03/10 06:47:45;;;;;;;10.57;4.80;;;0.30;99.90;;;;;;5055361;28;20069;-77
2023/03/10 06:50:12;;;;;;;15.82;5.80;;;0.30;99.90;;;;;;5039500;28;20455;-78
2023/03/10 06:52:41;;;;;;;11.35;4.50;;;0.30;99.90;;;;;;5071848;28;20041;-78
2023/03/10 06:55:09;;;;;;;11.30;5.03;;;0.90;99.90;;;;;;5071666;28;20482;-78
2023/03/10 06:57:36;;;;;;;16.02;6.13;;;0.30;99.90;;;;;;5072454;28;20076;-78
2023/03/10 07:00:06;;;;;;;11.15;5.63;;;0.30;99.90;;;;;;5055154;28;20416;-77
2023/03/10 07:02:33;;;;;;;12.27;5.03;;;0.30;99.90;;;;;;5072262;28;20047;-77
2023/03/10 07:04:59;;;;;;;11.13;4.78;;;0.30;99.90;;;;;;5071172;28;20124;-77
2023/03/10 07:07:26;;;;;;;12.18;4.95;;;0.30;99.90;;;;;;5055057;28;20033;-77
2023/03/10 07:09:53;;;;;;;12.07;5.32;;;0.20;99.90;;;;;;5054154;28;20120;-77
2023/03/10 07:12:19;;;;;;;15.88;6.53;;;0.30;99.90;;;;;;5051148;28;20179;-77
2023/03/10 07:14:46;;;;;;;12.13;5.57;;;0.50;99.90;;;;;;5101134;28;20041;-77
2023/03/10 07:17:13;;;;;;;13.50;5.35;;;0.30;99.90;;;;;;5068128;28;20041;-77
2023/03/10 07:19:39;;;;;;;10.65;5.57;;;0.20;99.90;;;;;;5067647;28;20037;-77
2023/03/10 07:22:06;;;;;;;14.00;5.97;;;0.30;99.90;;;;;;5067297;28;20486;-77
2023/03/10 07:24:33;;;;;;;17.42;4.80;;;1.00;99.90;;;;;;5084318;28;20041;-77
2023/03/10 07:27:00;;;;;;;13.63;5.40;;;0.20;99.90;;;;;;5100076;28;20114;-77
2023/03/10 07:29:27;;;;;;;12.73;5.28;;;0.90;99.90;;;;;;5083469;28;20029;-77
2023/03/10 07:31:54;;;;;;;12.98;5.82;;;0.30;99.90;;;;;;5083238;28;20034;-77
2023/03/10 07:34:21;;;;;;;11.68;5.00;;;0.20;99.90;;;;;;5100899;28;20580;-77
2023/03/10 07:36:48;;;;;;;12.93;4.88;;;0.90;99.90;;;;;;5101593;28;20057;-77
2023/03/10 07:39:15;;;;;;;8.32;4.13;;;0.20;99.90;;;;;;5100624;28;20083;-76
2023/03/10 07:41:42;;;;;;;12.35;5.18;;;1.10;99.90;;;;;;5067782;28;20510;-78
2023/03/10 07:44:11;;;;;;;11.35;5.00;;;0.30;99.90;;;;;;5082809;28;20088;-77
2023/03/10 07:46:38;;;;;;;12.73;4.78;;;0.30;99.90;;;;;;5067194;28;20053;-77
2023/03/10 07:49:05;;;;;;;13.13;5.47;;;0.40;99.90;;;;;;5067073;28;20516;-77
2023/03/10 07:51:32;;;;;;;11.52;4.93;;;1.10;99.90;;;;;;5083946;28;20486;-77
2023/03/10 07:53:59;;;;;;;15.05;6.28;;;0.30;99.90;;;;;;5067405;28;20037;-77
2023/03/10 07:56:25;;;;;;;13.90;5.97;;;0.70;99.90;;;;;;5084239;28;20049;-77
2023/03/10 07:58:52;;;;;;;13.60;5.70;;;0.40;99.90;;;;;;5100468;28;20030;-77
2023/03/10 08:01:21;;;;;;;12.43;5.85;;;0.40;99.90;;;;;;5089991;28;20037;-77
2023/03/10 08:03:48;;;;;;;11.85;5.18;;;0.40;99.90;;;;;;5070345;28;20045;-77
2023/03/10 08:06:23;;;;;;;13.07;5.18;;;0.40;99.90;;;;;;5070031;28;20071;-77
2023/03/10 08:08:50;;;;;;;12.77;5.10;;;0.40;99.90;;;;;;5070639;28;20076;-78
2023/03/10 08:11:18;;;;;;;12.68;5.00;;;0.40;99.90;;;;;;5054047;28;20279;-78
2023/03/10 08:13:46;;;;;;;12.15;5.70;;;0.50;99.90;;;;;;5070686;28;20041;-78
2023/03/10 08:16:15;;;;;;;12.35;6.57;;;0.40;99.90;;;;;;5070383;28;20091;-77
2023/03/10 08:18:42;;;;;;;12.27;5.10;;;0.50;99.90;;;;;;5087246;28;20458;-78
2023/03/10 08:21:12;;;;;;;10.95;5.15;;;0.50;99.90;;;;;;5070118;28;20134;-77
2023/03/10 08:23:39;;;;;;;16.95;6.05;;;0.90;99.90;;;;;;5087207;28;20045;-77
2023/03/10 08:26:09;;;;;;;11.70;5.38;;;0.50;99.90;;;;;;5087012;28;20044;-77
2023/03/10 08:28:37;;;;;;;14.35;6.45;;;0.50;99.90;;;;;;5070347;28;20127;-77
2023/03/10 08:31:13;;;;;;;15.10;5.72;;;0.50;99.90;;;;;;5053726;28;20041;-78
2023/03/10 08:33:40;;;;;;;14.80;5.70;;;0.60;99.90;;;;;;5070397;28;20123;-77
2023/03/10 08:36:13;;;;;;;20.65;6.68;;;0.50;99.90;;;;;;5086517;28;20036;-77
2023/03/10 08:38:40;;;;;;;16.35;5.97;;;0.50;99.90;;;;;;5086499;28;20477;-77
2023/03/10 08:41:09;;;;;;;12.00;5.97;;;0.50;99.90;;;;;;5069611;28;20041;-77
2023/03/10 08:43:36;;;;;;;13.10;6.13;;;0.50;99.90;;;;;;5053863;28;20511;-78
2023/03/10 08:46:03;;;;;;;16.95;6.32;;;0.60;99.90;;;;;;5053039;28;20033;-78
2023/03/10 08:48:30;;;;;;;14.90;6.72;;;0.60;99.90;;;;;;5069344;28;20043;-78
2023/03/10 08:50:56;;;;;;;14.77;7.20;;;1.00;99.90;;;;;;5070163;28;20094;-78
2023/03/10 08:53:24;;;;;;;14.20;6.97;;;1.20;99.90;;;;;;5037318;28;20044;-78
2023/03/10 08:55:50;;;;;;;16.65;7.18;;;1.10;99.90;;;;;;5069575;28;20090;-78
2023/03/10 08:58:17;;;;;;;17.02;6.93;;;0.70;99.90;;;;;;5085902;28;20048;-78
2023/03/10 09:00:44;;;;;;;16.77;7.05;;;0.90;99.90;;;;;;5053082;28;20076;-78
2023/03/10 09:03:11;;;;;;;18.75;7.40;;;1.00;99.90;;;;;;5069456;28;20045;-78
2023/03/10 09:05:37;;;;;;;15.32;6.65;;;0.80;99.90;;;;;;5053289;28;20040;-77
2023/03/10 09:08:05;;;;;;;17.45;6.82;;;1.70;99.90;;;;;;5052616;28;20094;-78
2023/03/10 09:10:31;;;;;;;15.82;7.18;;;0.90;99.90;;;;;;5069553;28;20491;-78
2023/03/10 09:12:58;;;;;;;14.05;6.85;;;0.80;99.90;;;;;;5036734;28;20124;-78
2023/03/10 09:15:25;;;;;;;19.73;7.45;;;0.90;99.90;;;;;;5036635;28;20048;-78
2023/03/10 09:17:52;;;;;;;20.88;7.90;;;0.80;99.90;;;;;;5069657;28;20037;-78
2023/03/10 09:20:21;;;;;;;22.08;7.43;;;0.70;99.90;;;;;;5052733;28;20044;-78
2023/03/10 09:22:48;;;;;;;12.63;6.05;;;0.80;99.90;;;;;;5069454;28;20040;-78
2023/03/10 09:25:14;;;;;;;15.60;7.28;;;1.40;99.90;;;;;;5085383;28;20044;-78
2023/03/10 09:27:41;;;;;;;13.95;7.20;;;0.80;99.90;;;;;;5069194;28;20037;-78
2023/03/10 09:30:08;;;;;;;13.95;6.60;;;1.40;99.90;;;;;;5068730;28;20064;-78
2023/03/10 09:32:35;;;;;;;18.80;7.75;;;0.80;99.90;;;;;;5085832;28;20037;-78
2023/03/10 09:35:03;;;;;;;16.10;7.32;;;1.50;99.90;;;;;;5052910;28;20033;-77
2023/03/10 09:37:29;;;;;;;12.63;5.57;;;0.70;99.90;;;;;;5068851;28;20143;-78
2023/03/10 09:39:56;;;;;;;19.67;7.80;;;1.00;99.90;;;;;;5085359;28;20797;-78
2023/03/10 09:42:37;;;;;;;15.48;6.75;;;0.80;99.90;;;;;;5052257;28;20041;-78
2023/03/10 09:45:24;;;;;;;17.45;6.70;;;0.70;99.90;;;;;;5068528;28;20037;-77
2023/03/10 09:48:09;;;;;;;15.32;6.75;;;0.70;99.90;;;;;;5068762;28;20554;-77
2023/03/10 09:50:46;;;;;;;14.50;6.28;;;0.80;99.90;;;;;;5082681;28;20040;-78
2023/03/10 09:53:42;;;;;;;16.17;7.45;;;0.80;99.90;;;;;;5084452;28;20104;-79
2023/03/10 09:56:16;;;;;;;18.83;7.50;;;0.80;99.90;;;;;;5085053;28;20036;-77
2023/03/10 09:58:51;;;;;;;18.20;7.03;;;0.80;99.90;;;;;;5068541;28;20044;-77
2023/03/10 10:01:21;;;;;;;20.65;7.63;;;0.80;99.90;;;;;;5085182;28;20041;-78
2023/03/10 10:03:52;;;;;;;15.45;7.00;;;0.80;99.90;;;;;;5068380;28;20041;-77
2023/03/10 10:06:26;;;;;;;18.70;6.72;;;1.20;99.90;;;;;;5081771;28;20047;-77
2023/03/10 10:08:57;;;;;;;17.52;7.72;;;0.80;99.90;;;;;;5060906;28;20029;-78
2023/03/10 10:11:24;;;;;;;15.02;6.97;;;1.60;99.90;;;;;;5084164;28;20594;-78
2023/03/10 10:14:08;;;;;;;18.15;7.65;;;0.80;99.90;;;;;;5067923;28;20045;-77
2023/03/10 10:16:51;;;;;;;13.80;6.18;;;0.90;99.90;;;;;;5064944;28;20052;-77
2023/03/10 10:19:24;;;;;;;16.27;6.90;;;0.80;99.90;;;;;;5067485;28;20084;-78
2023/03/10 10:22:21;;;;;;;14.40;6.70;;;0.90;99.90;;;;;;5085125;28;20052;-77
2023/03/10 10:25:09;;;;;;;15.32;6.25;;;0.90;99.90;;;;;;5084510;28;20131;-77
2023/03/10 10:27:38;;;;;;;17.17;6.70;;;0.90;99.90;;;;;;5100914;28;20045;-77
2023/03/10 10:30:29;;;;;;;17.20;7.20;;;0.90;99.90;;;;;;5067986;28;20037;-77
2023/03/10 10:33:02;;;;;;;16.80;6.70;;;0.90;99.90;;;;;;5110135;28;20111;-77
2023/03/10 10:35:38;;;;;;;14.07;7.05;;;0.90;99.90;;;;;;5067565;28;20096;-77
2023/03/10 10:38:12;;;;;;;19.27;7.05;;;0.90;99.90;;;;;;5084573;28;20076;-77
2023/03/10 10:40:57;;;;;;;15.38;7.30;;;1.00;99.90;;;;;;5083923;28;20170;-77
2023/03/10 10:43:24;;;;;;;16.30;6.75;;;0.90;99.90;;;;;;5067207;28;20053;-77
2023/03/10 10:45:53;;;;;;;13.80;6.68;;;0.90;99.90;;;;;;5051711;28;20120;-77
2023/03/10 10:48:35;;;;;;;16.60;7.25;;;0.90;99.90;;;;;;5063234;28;20104;-77
2023/03/10 10:51:04;;;;;;;14.27;6.22;;;0.80;99.90;;;;;;5091116;28;20056;-78
2023/03/10 10:53:35;;;;;;;14.63;7.38;;;0.80;99.90;;;;;;5066461;28;20087;-77
2023/03/10 10:56:13;;;;;;;17.13;6.75;;;0.80;99.90;;;;;;5067741;28;20041;-78
2023/03/10 10:58:43;;;;;;;14.05;7.03;;;0.80;99.90;;;;;;5098651;28;20037;-78
2023/03/10 11:01:12;;;;;;;17.77;7.50;;;1.20;99.90;;;;;;5050784;28;20452;-78
2023/03/10 11:03:46;;;;;;;14.50;6.32;;;0.90;99.90;;;;;;5066942;28;20116;-77
2023/03/10 11:06:23;;;;;;;16.17;7.05;;;0.90;99.90;;;;;;5084567;28;20099;-78
2023/03/10 11:08:51;;;;;;;14.93;6.53;;;0.90;99.90;;;;;;5067074;28;20045;-77
2023/03/10 11:11:37;;;;;;;17.48;7.00;;;1.30;99.90;;;;;;5067338;28;20049;-78
2023/03/10 11:14:19;;;;;;;13.55;6.10;;;0.90;99.90;;;;;;5066760;28;20064;-78
2023/03/10 11:17:04;;;;;;;15.32;7.00;;;0.90;99.90;;;;;;5067351;28;20048;-78
2023/03/10 11:20:03;;;;;;;18.60;8.00;;;0.90;99.90;;;;;;5068346;28;20120;-77
2023/03/10 11:22:37;;;;;;;14.48;6.28;;;0.90;99.90;;;;;;5087157;28;20470;-77
2023/03/10 11:25:16;;;;;;;15.70;6.95;;;0.90;99.90;;;;;;5087385;28;20041;-77
2023/03/10 11:28:00;;;;;;;14.18;6.30;;;1.00;99.90;;;;;;5070643;28;20179;-78
2023/03/10 11:30:38;;;;;;;14.68;6.85;;;0.90;99.90;;;;;;5086570;28;20447;-78
2023/03/10 11:33:25;;;;;;;13.88;6.85;;;0.90;99.90;;;;;;5070801;28;20086;-77
2023/03/10 11:35:53;;;;;;;;;;;0.90;99.90;;;;;;5071638;28;20040;-77
2023/03/10 11:38:29;;;;;;;13.25;6.40;;;0.90;99.90;;;;;;5070563;28;19916;-78
2023/03/10 11:41:26;;;;;;;14.07;6.75;;;1.00;99.90;;;;;;5065697;28;20036;-77
2023/03/10 11:44:04;;;;;;;13.27;6.03;;;0.90;99.90;;;;;;5101095;28;20520;-77
2023/03/10 11:46:38;;;;;;;17.35;6.90;;;1.00;99.90;;;;;;5102840;28;20519;-77
2023/03/10 11:49:15;;;;;;;12.80;5.95;;;1.00;99.90;;;;;;5087065;28;20041;-77
2023/03/10 11:51:58;;;;;;;17.73;7.85;;;1.00;99.90;;;;;;5054592;28;20041;-77
2023/03/10 11:54:35;;;;;;;15.07;5.68;;;1.00;99.90;;;;;;5069865;28;20212;-77
2023/03/10 11:57:16;;;;;;;20.17;8.05;;;1.00;99.90;;;;;;5086854;28;20400;-77
2023/03/10 11:59:57;;;;;;;15.88;6.75;;;1.00;99.90;;;;;;5102745;28;20493;-77
2023/03/10 12:02:47;;;;;;;14.80;7.13;;;1.00;99.90;;;;;;5086063;28;20416;-77
2023/03/10 12:05:20;;;;;;;12.95;6.57;;;1.00;99.90;;;;;;5086617;28;20095;-77
2023/03/10 12:07:51;;;;;;;12.93;6.38;;;1.00;99.90;;;;;;5069247;28;20398;-78
2023/03/10 12:10:20;;;;;;;15.63;6.25;;;1.00;99.90;;;;;;5086097;28;20041;-78
2023/03/10 12:12:49;;;;;;;14.50;5.43;;;1.10;99.90;;;;;;5069049;28;20045;-77
2023/03/10 12:15:35;;;;;;;12.15;5.63;;;1.40;99.90;;;;;;5086712;28;20044;-77
2023/03/10 12:18:04;;;;;;;14.63;6.38;;;1.00;99.90;;;;;;5069821;28;20049;-77
2023/03/10 12:20:32;;;;;;;15.57;5.63;;;1.00;99.90;;;;;;5086337;28;20527;-77
2023/03/10 12:23:25;;;;;;;13.55;6.72;;;1.60;99.90;;;;;;5086506;28;20045;-77
2023/03/10 12:25:52;;;;;;;14.13;5.90;;;1.00;99.90;;;;;;5103590;28;20136;-77
2023/03/10 12:28:31;;;;;;;15.95;6.63;;;1.00;99.90;;;;;;5069758;28;20112;-77
2023/03/10 12:31:06;;;;;;;16.50;6.82;;;1.00;99.90;;;;;;5102818;28;20504;-77
2023/03/10 12:33:33;;;;;;;14.13;6.15;;;1.30;99.90;;;;;;5086231;28;20041;-77
2023/03/10 12:36:13;;;;;;;14.75;6.63;;;0.90;99.90;;;;;;5103173;28;20142;-77
2023/03/10 12:38:52;;;;;;;14.10;5.97;;;0.90;99.90;;;;;;5085606;28;20417;-77
2023/03/10 12:41:25;;;;;;;14.65;6.65;;;0.90;99.90;;;;;;5119883;28;20045;-77
2023/03/10 12:43:59;;;;;;;20.92;6.78;;;0.90;99.90;;;;;;5102654;28;20053;-77
2023/03/10 12:46:46;;;;;;;14.90;5.72;;;0.90;99.90;;;;;;5085780;28;20051;-77
2023/03/10 12:49:30;;;;;;;11.63;5.57;;;0.90;99.90;;;;;;5086350;28;20409;-77
2023/03/10 12:52:21;;;;;;;14.75;5.85;;;0.90;99.90;;;;;;5069157;28;20566;-77
2023/03/10 12:55:12;;;;;;;13.55;6.13;;;0.90;99.90;;;;;;5069550;28;20127;-77
2023/03/10 12:58:14;;;;;;;15.23;6.45;;;0.90;99.90;;;;;;5068850;28;20570;-77
2023/03/10 13:00:48;;;;;;;13.27;5.55;;;0.90;99.90;;;;;;5062139;28;20482;-77
2023/03/10 13:03:36;;;;;;;13.98;5.50;;;1.30;99.90;;;;;;5086159;28;20040;-78